Time;durP1;ratioP1;P1;durP2;ratioP2;P2;SDS_P1;SDS_P2;PMS_P1;PMS_P2;Temp;Humidity;BMP_temperature;BMP_pressure;BME280_temperature;BME280_humidity;BME280_pressure;Samples;Min_cycle;Max_cycle;Signal;HPM_P1;HPM_P2
2021/09/03 00:11:30;;;;;;;9.47;5.60;;;12.10;99.90;;;;;;4974178;28;20490;-70
2021/09/03 00:14:00;;;;;;;8.80;5.57;;;12.10;99.90;;;;;;4973124;28;20421;-70
2021/09/03 00:16:28;;;;;;;8.50;4.50;;;12.10;99.90;;;;;;4973182;28;20566;-70
2021/09/03 00:18:56;;;;;;;10.90;6.40;;;12.10;99.90;;;;;;4973054;28;20390;-70
2021/09/03 00:21:24;;;;;;;9.03;6.47;;;12.00;99.90;;;;;;4955234;28;20532;-70
2021/09/03 00:23:52;;;;;;;7.83;3.57;;;12.00;99.90;;;;;;4972591;28;20419;-70
2021/09/03 00:26:20;;;;;;;4.80;3.33;;;12.00;99.90;;;;;;4972665;28;20988;-70
2021/09/03 00:28:48;;;;;;;7.10;2.63;;;12.00;99.90;;;;;;4972561;28;20493;-70
2021/09/03 00:31:17;;;;;;;3.70;2.97;;;12.00;99.90;;;;;;4973653;28;20433;-69
2021/09/03 00:33:45;;;;;;;6.80;3.20;;;12.00;99.90;;;;;;4973625;28;20417;-70
2021/09/03 00:36:13;;;;;;;4.90;2.73;;;12.00;99.90;;;;;;4956500;28;20891;-70
2021/09/03 00:38:41;;;;;;;2.90;2.13;;;12.00;99.90;;;;;;4975413;28;20440;-70
2021/09/03 00:41:09;;;;;;;2.67;2.00;;;12.00;99.90;;;;;;4974998;28;20427;-70
2021/09/03 00:43:38;;;;;;;3.10;2.17;;;12.10;99.90;;;;;;4975103;28;20790;-70
2021/09/03 00:46:06;;;;;;;3.13;2.77;;;12.00;99.90;;;;;;4975095;28;20520;-69
2021/09/03 00:48:35;;;;;;;2.63;2.10;;;12.00;99.90;;;;;;4957710;28;20935;-70
2021/09/03 00:51:04;;;;;;;4.07;2.70;;;12.00;99.90;;;;;;4975473;28;20777;-70
2021/09/03 00:53:33;;;;;;;3.93;2.57;;;11.90;99.90;;;;;;4975529;28;20392;-70
2021/09/03 00:56:01;;;;;;;4.00;2.37;;;11.90;99.90;;;;;;4975057;28;20557;-70
2021/09/03 00:58:29;;;;;;;2.63;2.30;;;11.90;99.90;;;;;;4975832;28;20509;-70
2021/09/03 01:00:57;;;;;;;5.63;3.57;;;11.90;99.90;;;;;;4976900;28;20525;-70
2021/09/03 01:03:26;;;;;;;1.70;1.47;;;11.90;99.90;;;;;;4976039;28;20868;-69
2021/09/03 01:05:55;;;;;;;4.50;2.53;;;11.80;99.90;;;;;;4958644;28;20461;-69
2021/09/03 01:08:24;;;;;;;3.03;2.73;;;11.80;99.90;;;;;;4975864;28;20460;-70
2021/09/03 01:10:52;;;;;;;3.40;2.67;;;11.80;99.90;;;;;;4975754;28;20798;-69
2021/09/03 01:13:19;;;;;;;3.30;1.60;;;11.80;99.90;;;;;;4975655;28;20420;-69
2021/09/03 01:15:47;;;;;;;4.53;3.13;;;11.80;99.90;;;;;;4975525;28;20850;-70
2021/09/03 01:18:15;;;;;;;2.00;1.80;;;11.80;99.90;;;;;;4975506;28;20962;-69
2021/09/03 01:20:44;;;;;;;4.83;2.97;;;11.90;99.90;;;;;;4975994;28;20501;-70
2021/09/03 01:23:13;;;;;;;7.33;2.70;;;11.80;99.90;;;;;;4975402;28;20501;-69
2021/09/03 01:25:42;;;;;;;3.50;2.07;;;11.80;99.90;;;;;;4975050;28;20428;-69
2021/09/03 01:28:10;;;;;;;2.70;2.40;;;11.80;99.90;;;;;;4975620;28;20431;-69
2021/09/03 01:30:38;;;;;;;1.60;1.50;;;11.80;99.90;;;;;;4975258;28;20402;-69
2021/09/03 01:33:06;;;;;;;3.10;2.37;;;11.80;99.90;;;;;;4975846;28;20952;-69
2021/09/03 01:35:34;;;;;;;2.30;2.13;;;11.80;99.90;;;;;;4974938;28;20467;-69
2021/09/03 01:38:05;;;;;;;3.27;1.77;;;11.80;99.90;;;;;;4975202;28;20522;-69
2021/09/03 01:40:35;;;;;;;2.07;1.50;;;11.80;99.90;;;;;;4975327;28;20426;-69
2021/09/03 01:43:04;;;;;;;4.10;2.03;;;11.70;99.90;;;;;;4975176;28;20514;-70
2021/09/03 01:45:32;;;;;;;4.27;2.73;;;11.80;99.90;;;;;;4974711;28;20520;-70
2021/09/03 01:48:00;;;;;;;1.80;1.70;;;11.70;99.90;;;;;;4975032;28;20427;-69
2021/09/03 01:50:28;;;;;;;2.80;1.63;;;11.70;99.90;;;;;;4974811;28;20438;-70
2021/09/03 01:52:56;;;;;;;2.27;2.07;;;11.70;99.90;;;;;;4975046;28;20756;-70
2021/09/03 01:55:24;;;;;;;2.33;2.00;;;11.70;99.90;;;;;;4974670;28;20950;-70
2021/09/03 01:57:53;;;;;;;1.73;1.40;;;11.70;99.90;;;;;;4974824;28;20474;-70
2021/09/03 02:00:21;;;;;;;4.17;2.83;;;11.70;99.90;;;;;;4974721;28;20830;-70
2021/09/03 02:02:49;;;;;;;2.83;2.27;;;11.70;99.90;;;;;;4974350;28;20427;-70
2021/09/03 02:05:18;;;;;;;1.97;1.50;;;11.70;99.90;;;;;;4974402;28;20474;-70
2021/09/03 02:07:46;;;;;;;2.83;2.10;;;11.60;99.90;;;;;;4974442;28;20401;-70
2021/09/03 02:10:14;;;;;;;2.53;1.37;;;11.60;99.90;;;;;;4974505;28;20688;-70
2021/09/03 02:12:42;;;;;;;3.00;2.13;;;11.70;99.90;;;;;;4974212;28;20507;-70
2021/09/03 02:15:12;;;;;;;2.50;2.30;;;11.60;99.90;;;;;;4974414;28;20453;-70
2021/09/03 02:17:40;;;;;;;1.90;1.53;;;11.60;99.90;;;;;;4974317;28;20574;-70
2021/09/03 02:20:09;;;;;;;2.40;1.40;;;11.50;99.90;;;;;;4974651;28;20425;-70
2021/09/03 02:22:37;;;;;;;3.00;2.13;;;11.60;99.90;;;;;;4974307;28;20521;-70
2021/09/03 02:25:06;;;;;;;2.07;1.87;;;11.60;99.90;;;;;;4974415;28;20542;-70
2021/09/03 02:27:35;;;;;;;2.13;1.90;;;11.60;99.90;;;;;;4974699;28;20945;-70
2021/09/03 02:30:03;;;;;;;2.80;2.40;;;11.50;99.90;;;;;;4978668;28;20400;-70
2021/09/03 02:32:33;;;;;;;3.77;3.10;;;11.60;99.90;;;;;;4978253;28;21047;-70
2021/09/03 02:35:01;;;;;;;5.27;1.97;;;11.60;99.90;;;;;;4978179;28;20886;-70
2021/09/03 02:37:29;;;;;;;2.53;2.33;;;11.70;99.90;;;;;;4977134;28;20434;-70
2021/09/03 02:39:57;;;;;;;6.60;2.20;;;11.60;99.90;;;;;;4976799;28;20794;-70
2021/09/03 02:42:25;;;;;;;4.10;2.43;;;11.60;99.90;;;;;;4976677;28;20458;-70
2021/09/03 02:44:53;;;;;;;3.33;2.20;;;11.60;99.90;;;;;;4974874;28;20451;-70
2021/09/03 02:47:21;;;;;;;5.83;2.90;;;11.50;99.90;;;;;;4974231;28;20850;-70
2021/09/03 02:49:50;;;;;;;2.13;1.27;;;11.50;99.90;;;;;;4974169;28;20923;-72
2021/09/03 02:52:18;;;;;;;1.20;1.10;;;11.50;99.90;;;;;;4973701;28;20448;-71
2021/09/03 02:54:46;;;;;;;2.70;1.57;;;11.50;99.90;;;;;;4991993;23;21073;-68
2021/09/03 02:57:14;;;;;;;2.77;1.80;;;11.40;99.90;;;;;;4959926;28;20463;-68
2021/09/03 02:59:42;;;;;;;3.80;2.17;;;11.50;99.90;;;;;;4973858;28;20489;-68
2021/09/03 03:02:10;;;;;;;3.07;2.73;;;11.40;99.90;;;;;;4973656;28;20435;-68
2021/09/03 03:04:38;;;;;;;1.77;1.43;;;11.40;99.90;;;;;;4973763;28;20454;-68
2021/09/03 03:07:08;;;;;;;2.73;1.73;;;11.50;99.90;;;;;;4974341;28;20926;-68
2021/09/03 03:09:36;;;;;;;5.17;4.13;;;11.50;99.90;;;;;;4973882;28;20505;-68
2021/09/03 03:12:05;;;;;;;1.93;1.83;;;11.40;99.90;;;;;;4973833;28;20427;-68
2021/09/03 03:14:33;;;;;;;3.10;2.80;;;11.40;99.90;;;;;;4973387;28;20450;-68
2021/09/03 03:17:02;;;;;;;2.63;1.90;;;11.40;99.90;;;;;;4973481;28;20462;-68
2021/09/03 03:19:30;;;;;;;2.17;1.50;;;11.50;99.90;;;;;;4973215;28;20401;-68
2021/09/03 03:21:58;;;;;;;3.53;1.57;;;11.50;99.90;;;;;;4973105;28;20415;-69
2021/09/03 03:24:28;;;;;;;1.67;0.93;;;11.50;99.90;;;;;;4973183;28;20482;-67
2021/09/03 03:26:56;;;;;;;2.60;2.23;;;11.50;99.90;;;;;;4973395;28;20423;-68
2021/09/03 03:29:26;;;;;;;1.87;1.67;;;11.50;99.90;;;;;;4973015;28;20435;-67
2021/09/03 03:31:54;;;;;;;3.50;2.17;;;11.50;99.90;;;;;;4973253;28;20483;-68
2021/09/03 03:34:22;;;;;;;2.70;1.70;;;11.50;99.90;;;;;;4972848;28;20430;-67
2021/09/03 03:36:50;;;;;;;2.23;1.87;;;11.50;99.90;;;;;;4973155;28;20877;-68
2021/09/03 03:39:18;;;;;;;4.00;2.47;;;11.50;99.90;;;;;;4972975;28;20431;-67
2021/09/03 03:41:48;;;;;;;4.20;2.53;;;11.50;99.90;;;;;;4973337;28;20408;-67
2021/09/03 03:44:15;;;;;;;2.30;2.10;;;11.50;99.90;;;;;;4973736;28;20518;-67
2021/09/03 03:46:43;;;;;;;4.17;2.27;;;11.40;99.90;;;;;;4973702;28;20430;-67
2021/09/03 03:49:11;;;;;;;2.13;1.80;;;11.40;99.90;;;;;;4973119;28;20514;-68
2021/09/03 03:51:39;;;;;;;2.83;1.80;;;11.40;99.90;;;;;;4973176;28;20494;-69
2021/09/03 03:54:08;;;;;;;4.10;1.80;;;11.40;99.90;;;;;;4972951;28;20401;-68
2021/09/03 03:56:36;;;;;;;9.33;2.77;;;11.50;99.90;;;;;;4973298;28;20456;-68
2021/09/03 03:59:05;;;;;;;7.33;3.50;;;11.50;99.90;;;;;;4972825;28;20544;-67
2021/09/03 04:01:34;;;;;;;1.93;1.67;;;11.50;99.90;;;;;;4973368;28;20774;-68
2021/09/03 04:04:04;;;;;;;2.23;1.43;;;11.50;99.90;;;;;;4975681;28;20457;-67
2021/09/03 04:06:32;;;;;;;2.87;2.67;;;11.50;99.90;;;;;;4974362;28;20401;-68
2021/09/03 04:09:01;;;;;;;2.40;2.20;;;11.60;99.90;;;;;;4973560;28;20913;-67
2021/09/03 04:11:29;;;;;;;4.30;2.60;;;11.50;99.90;;;;;;4973217;28;20427;-68
2021/09/03 04:13:57;;;;;;;1.87;1.40;;;11.60;99.90;;;;;;4973033;28;20492;-68
2021/09/03 04:16:27;;;;;;;2.60;1.77;;;11.60;99.90;;;;;;4973334;28;20893;-68
2021/09/03 04:18:55;;;;;;;4.37;1.60;;;11.60;99.90;;;;;;4973287;28;20472;-68
2021/09/03 04:21:23;;;;;;;3.77;3.17;;;11.70;99.90;;;;;;4973494;28;20446;-68
2021/09/03 04:23:50;;;;;;;2.77;2.37;;;11.60;99.90;;;;;;4973562;28;20492;-68
2021/09/03 04:26:18;;;;;;;2.57;1.90;;;11.60;99.90;;;;;;4955755;28;20506;-68
2021/09/03 04:28:46;;;;;;;3.33;2.03;;;11.60;99.90;;;;;;4973234;28;20459;-68
2021/09/03 04:31:15;;;;;;;2.00;1.80;;;11.50;99.90;;;;;;4972954;28;20409;-67
2021/09/03 04:33:44;;;;;;;2.20;2.00;;;11.50;99.90;;;;;;4955662;28;20435;-68
2021/09/03 04:36:12;;;;;;;3.27;1.73;;;11.50;99.90;;;;;;4976484;28;20482;-67
2021/09/03 04:38:40;;;;;;;4.20;3.80;;;11.60;99.90;;;;;;4976939;28;20437;-68
2021/09/03 04:41:08;;;;;;;4.73;4.40;;;11.60;99.90;;;;;;4976260;28;20923;-68
2021/09/03 04:43:36;;;;;;;2.20;1.83;;;11.60;99.90;;;;;;4976361;28;20910;-68
2021/09/03 04:46:04;;;;;;;2.83;2.33;;;11.70;99.90;;;;;;4976010;28;20421;-67
2021/09/03 04:48:32;;;;;;;2.63;2.10;;;11.80;99.90;;;;;;4976471;28;20382;-68
2021/09/03 04:51:02;;;;;;;2.73;2.43;;;11.80;99.90;;;;;;4976557;28;20912;-67
2021/09/03 04:53:30;;;;;;;2.80;2.00;;;11.80;99.90;;;;;;4976854;28;20429;-69
2021/09/03 04:55:58;;;;;;;3.07;2.00;;;11.80;99.90;;;;;;4960220;28;20462;-69
2021/09/03 04:58:26;;;;;;;3.10;2.20;;;12.00;99.90;;;;;;4976001;28;20569;-69
2021/09/03 05:00:54;;;;;;;2.70;1.83;;;12.20;99.90;;;;;;4976601;28;20453;-69
2021/09/03 05:03:22;;;;;;;5.93;3.53;;;12.80;99.90;;;;;;4976678;28;20417;-69
2021/09/03 05:05:51;;;;;;;4.63;2.43;;;13.50;99.90;;;;;;4976714;28;20497;-69
2021/09/03 05:08:20;;;;;;;3.00;2.70;;;14.10;99.90;;;;;;4977842;28;20500;-68
2021/09/03 05:10:48;;;;;;;3.80;3.50;;;14.60;99.90;;;;;;4976975;28;20409;-69
2021/09/03 05:13:16;;;;;;;3.33;3.03;;;14.60;99.90;;;;;;4977768;28;20397;-69
2021/09/03 05:15:45;;;;;;;5.13;3.17;;;14.30;99.90;;;;;;4977495;28;20460;-69
2021/09/03 05:18:13;;;;;;;3.57;2.47;;;13.90;99.90;;;;;;4976884;28;20451;-69
2021/09/03 05:20:41;;;;;;;5.80;4.17;;;13.60;99.90;;;;;;4977183;28;20422;-69
2021/09/03 05:26:41;;;;;;;3.50;2.70;;;13.20;99.90;;;;;;4975438;28;20408;-69
2021/09/03 05:29:09;;;;;;;5.00;2.60;;;13.10;99.90;;;;;;4976158;28;20429;-69
2021/09/03 05:31:37;;;;;;;8.50;4.70;;;13.20;99.90;;;;;;4975992;28;20424;-70
2021/09/03 05:34:05;;;;;;;6.17;4.67;;;13.20;99.90;;;;;;4976396;28;20427;-69
2021/09/03 05:36:33;;;;;;;6.57;3.67;;;13.20;99.90;;;;;;4976318;28;20401;-69
2021/09/03 05:39:01;;;;;;;3.40;3.10;;;13.30;99.90;;;;;;4976410;28;20811;-69
2021/09/03 05:41:29;;;;;;;4.50;2.77;;;13.40;99.90;;;;;;4976098;28;20839;-69
2021/09/03 05:43:58;;;;;;;3.50;3.20;;;13.40;99.90;;;;;;4975888;28;20476;-69
2021/09/03 05:46:26;;;;;;;4.87;3.40;;;13.40;99.90;;;;;;4975754;28;20974;-69
2021/09/03 05:48:54;;;;;;;4.50;3.27;;;13.50;99.90;;;;;;4975704;28;20427;-69
2021/09/03 05:51:23;;;;;;;2.40;2.20;;;13.50;99.90;;;;;;4975646;28;20427;-69
2021/09/03 05:53:50;;;;;;;5.47;2.40;;;13.60;99.90;;;;;;4975874;28;20489;-69
2021/09/03 05:56:19;;;;;;;3.47;2.90;;;13.60;99.90;;;;;;4975733;28;20709;-69
2021/09/03 05:58:47;;;;;;;5.40;4.60;;;13.70;99.90;;;;;;4974971;28;20517;-68
2021/09/03 06:01:16;;;;;;;4.97;2.93;;;13.80;99.90;;;;;;4975786;28;20428;-69
2021/09/03 06:03:44;;;;;;;5.07;3.17;;;13.90;99.90;;;;;;4974904;28;20916;-68
2021/09/03 06:06:12;;;;;;;4.00;3.10;;;13.90;99.90;;;;;;4974583;28;20562;-68
2021/09/03 06:08:40;;;;;;;7.13;5.10;;;14.00;99.90;;;;;;4974373;28;20435;-67
2021/09/03 06:11:08;;;;;;;3.60;2.97;;;14.20;99.90;;;;;;4974455;28;20492;-69
2021/09/03 06:13:36;;;;;;;4.73;3.70;;;14.30;99.90;;;;;;4972522;28;20410;-69
2021/09/03 06:16:05;;;;;;;2.93;2.63;;;14.40;99.90;;;;;;4954918;28;20496;-68
2021/09/03 06:18:34;;;;;;;5.80;2.10;;;14.60;99.90;;;;;;4954708;29;20471;-68
2021/09/03 06:21:02;;;;;;;2.87;2.60;;;14.60;99.90;;;;;;4955399;29;20430;-68
2021/09/03 06:23:30;;;;;;;3.73;2.93;;;14.80;99.90;;;;;;4955066;29;20407;-69
2021/09/03 06:25:58;;;;;;;4.60;4.20;;;14.90;99.90;;;;;;4955278;29;20446;-68
2021/09/03 06:28:26;;;;;;;5.33;3.10;;;15.00;99.90;;;;;;4955118;29;20462;-68
2021/09/03 06:30:54;;;;;;;2.90;2.60;;;15.00;99.90;;;;;;4954839;29;20505;-70
2021/09/03 06:33:22;;;;;;;4.43;3.43;;;14.80;99.90;;;;;;4954969;29;20424;-69
2021/09/03 06:35:52;;;;;;;2.47;2.27;;;14.80;99.90;;;;;;4954513;29;20502;-68
2021/09/03 06:38:20;;;;;;;4.43;3.73;;;14.80;99.90;;;;;;4955018;29;20556;-69
2021/09/03 06:40:48;;;;;;;6.30;3.13;;;14.70;99.90;;;;;;4954795;29;20847;-70
2021/09/03 06:43:17;;;;;;;4.50;3.10;;;14.90;99.90;;;;;;4954934;29;20959;-70
2021/09/03 06:45:45;;;;;;;2.83;1.97;;;14.90;99.90;;;;;;4954609;29;20466;-70
2021/09/03 06:48:13;;;;;;;4.77;4.20;;;15.10;99.90;;;;;;4954765;29;20407;-69
2021/09/03 06:50:41;;;;;;;5.30;3.33;;;15.10;99.90;;;;;;4954310;29;20463;-69
2021/09/03 06:53:10;;;;;;;3.03;2.60;;;15.10;99.90;;;;;;4954545;29;20417;-69
2021/09/03 06:55:38;;;;;;;4.50;3.20;;;15.00;99.90;;;;;;4954275;29;20476;-69
2021/09/03 06:58:06;;;;;;;4.93;3.90;;;15.10;99.90;;;;;;4953737;28;20459;-70
2021/09/03 07:00:34;;;;;;;3.93;2.57;;;15.10;99.90;;;;;;4952384;29;20493;-70
2021/09/03 07:03:02;;;;;;;2.47;1.97;;;15.10;99.90;;;;;;4954152;29;20474;-70
2021/09/03 07:05:31;;;;;;;3.30;3.00;;;15.20;99.90;;;;;;4954480;29;20458;-70
2021/09/03 07:07:59;;;;;;;4.47;3.20;;;15.30;99.90;;;;;;4954813;29;20420;-68
2021/09/03 07:10:28;;;;;;;4.90;3.20;;;15.40;99.90;;;;;;4968842;28;20415;-69
2021/09/03 07:12:56;;;;;;;4.40;3.40;;;15.50;99.90;;;;;;4954362;29;20889;-70
2021/09/03 07:15:24;;;;;;;5.03;3.67;;;15.70;99.90;;;;;;4953723;29;20535;-69
2021/09/03 07:17:55;;;;;;;3.87;2.97;;;15.80;99.90;;;;;;4954099;29;20383;-69
2021/09/03 07:20:23;;;;;;;5.30;2.77;;;15.80;99.90;;;;;;4953777;29;20541;-70
2021/09/03 07:22:51;;;;;;;4.27;3.10;;;15.80;99.90;;;;;;4954178;29;20466;-69
2021/09/03 07:25:19;;;;;;;3.23;2.93;;;15.80;99.90;;;;;;4954148;29;20770;-69
2021/09/03 07:27:49;;;;;;;8.10;3.00;;;15.80;99.90;;;;;;4953783;29;20428;-70
2021/09/03 07:30:17;;;;;;;5.03;3.40;;;15.90;99.90;;;;;;4953981;29;20395;-70
2021/09/03 07:32:45;;;;;;;5.57;2.83;;;15.90;99.90;;;;;;4954031;29;20409;-69
2021/09/03 07:35:13;;;;;;;4.50;2.50;;;15.80;99.90;;;;;;4954111;29;20789;-69
2021/09/03 07:37:42;;;;;;;3.80;3.03;;;15.90;99.90;;;;;;4954247;29;20947;-69
2021/09/03 07:40:12;;;;;;;4.07;2.30;;;16.00;99.90;;;;;;4953835;29;20892;-69
2021/09/03 07:42:40;;;;;;;4.30;2.87;;;16.00;99.90;;;;;;4953889;29;20441;-69
2021/09/03 07:45:10;;;;;;;7.70;2.50;;;16.20;99.90;;;;;;4967250;28;20587;-69
2021/09/03 07:47:38;;;;;;;3.67;2.87;;;16.40;99.90;;;;;;4952054;28;20406;-68
2021/09/03 07:50:16;;;;;;;2.90;2.60;;;16.50;99.90;;;;;;4952572;29;20402;-68
2021/09/03 07:52:44;;;;;;;3.90;2.80;;;16.50;99.90;;;;;;4954304;29;20961;-69
2021/09/03 07:55:33;;;;;;;3.20;2.77;;;16.60;99.90;;;;;;4954205;29;20478;-69
2021/09/03 07:58:03;;;;;;;2.63;2.40;;;16.60;99.90;;;;;;4954389;29;20498;-70
2021/09/03 08:00:33;;;;;;;3.63;3.17;;;16.70;99.90;;;;;;4954359;29;20446;-70
2021/09/03 08:03:01;;;;;;;3.30;2.60;;;16.80;99.90;;;;;;4936709;29;20407;-70
2021/09/03 08:05:30;;;;;;;2.53;2.03;;;16.90;99.90;;;;;;4954041;29;20454;-70
2021/09/03 08:07:58;;;;;;;2.80;2.17;;;17.00;99.90;;;;;;4955337;28;20881;-70
2021/09/03 08:10:29;;;;;;;10.23;2.37;;;17.10;99.90;;;;;;4957946;29;20487;-69
2021/09/03 08:12:57;;;;;;;3.73;2.60;;;17.10;99.90;;;;;;4957635;29;20427;-68
2021/09/03 08:15:25;;;;;;;3.10;2.30;;;17.10;99.90;;;;;;4957648;29;20469;-70
2021/09/03 08:17:55;;;;;;;3.60;2.87;;;17.10;99.90;;;;;;4960715;29;20439;-69
2021/09/03 08:20:23;;;;;;;3.57;2.37;;;17.10;99.90;;;;;;4961361;29;20454;-68
2021/09/03 08:22:52;;;;;;;5.87;2.60;;;17.20;99.90;;;;;;4960041;28;20440;-69
2021/09/03 08:25:21;;;;;;;3.40;2.77;;;17.30;99.90;;;;;;4967238;28;20744;-69
2021/09/03 08:27:50;;;;;;;4.13;2.80;;;17.50;99.90;;;;;;4962181;28;20719;-69
2021/09/03 08:30:20;;;;;;;3.40;2.67;;;17.50;99.90;;;;;;4957192;29;20453;-69
2021/09/03 08:32:48;;;;;;;4.73;2.67;;;17.50;99.90;;;;;;4950762;29;20553;-69
2021/09/03 08:35:18;;;;;;;8.23;3.23;;;17.40;99.90;;;;;;4956999;28;20481;-68
2021/09/03 08:37:49;;;;;;;4.37;3.00;;;17.70;99.90;;;;;;4937743;29;20403;-68
2021/09/03 08:40:18;;;;;;;3.93;3.00;;;17.80;99.90;;;;;;4942719;29;20499;-69
2021/09/03 08:42:47;;;;;;;2.27;2.07;;;17.90;99.90;;;;;;4956613;29;20461;-69
2021/09/03 08:45:15;;;;;;;3.97;2.50;;;18.10;99.90;;;;;;4957019;29;20426;-69
2021/09/03 08:47:45;;;;;;;1.87;1.70;;;18.30;99.90;;;;;;4956894;29;20477;-69
2021/09/03 08:50:16;;;;;;;3.73;2.67;;;18.60;99.90;;;;;;4957696;29;20436;-69
2021/09/03 08:52:47;;;;;;;8.60;3.37;;;18.80;99.90;;;;;;4958106;29;20457;-69
2021/09/03 08:55:16;;;;;;;3.37;2.97;;;18.50;99.90;;;;;;4980578;23;21020;-72
2021/09/03 08:57:45;;;;;;;1.80;1.17;;;18.50;99.90;;;;;;4950397;28;20422;-70
2021/09/03 09:00:20;;;;;;;4.83;1.73;;;18.40;99.90;;;;;;4957659;29;20798;-73
2021/09/03 09:03:00;;;;;;;2.60;2.03;;;18.50;99.90;;;;;;4957820;29;20413;-71
2021/09/03 09:05:57;;;;;;;3.93;2.43;;;18.50;99.90;;;;;;4958152;28;20441;-70
2021/09/03 09:08:28;;;;;;;2.33;2.00;;;18.40;99.90;;;;;;4956394;29;20406;-71
2021/09/03 09:10:58;;;;;;;5.00;2.00;;;18.50;99.90;;;;;;4956438;29;20415;-70
2021/09/03 09:13:28;;;;;;;2.50;1.57;;;18.70;99.90;;;;;;4956654;29;20768;-72
2021/09/03 09:16:01;;;;;;;5.80;2.97;;;18.70;99.90;;;;;;4956592;29;20466;-71
2021/09/03 09:18:34;;;;;;;3.73;2.20;;;18.50;99.90;;;;;;4956253;29;20393;-72
2021/09/03 09:21:11;;;;;;;4.87;3.00;;;18.60;99.90;;;;;;4955632;28;20451;-72
2021/09/03 09:23:49;;;;;;;2.83;1.93;;;18.70;99.90;;;;;;4956653;29;20402;-72
2021/09/03 09:26:21;;;;;;;4.00;2.60;;;18.60;99.90;;;;;;4956312;29;20447;-70
2021/09/03 09:28:50;;;;;;;2.97;1.90;;;18.80;99.90;;;;;;4956046;29;20787;-71
2021/09/03 09:31:31;;;;;;;5.30;3.60;;;19.00;99.90;;;;;;4956247;28;20498;-72
2021/09/03 09:34:00;;;;;;;2.20;2.00;;;19.00;99.90;;;;;;4956152;29;20821;-71
2021/09/03 09:36:36;;;;;;;3.07;2.17;;;19.10;99.90;;;;;;4963268;28;20471;-71
2021/09/03 09:39:05;;;;;;;2.07;1.40;;;19.00;99.90;;;;;;4959333;28;20398;-71
2021/09/03 09:41:33;;;;;;;5.30;4.77;;;18.90;99.90;;;;;;4957787;28;20475;-72
2021/09/03 09:44:02;;;;;;;2.40;1.60;;;19.10;99.90;;;;;;4959105;28;20469;-72
2021/09/03 09:46:32;;;;;;;4.03;3.30;;;19.40;99.90;;;;;;4974294;28;20429;-72
2021/09/03 09:49:15;;;;;;;3.73;2.10;;;19.50;99.90;;;;;;4975513;28;20406;-72
2021/09/03 09:51:51;;;;;;;2.33;1.57;;;19.60;99.90;;;;;;4975459;28;20509;-72
2021/09/03 09:54:22;;;;;;;2.13;1.40;;;19.50;99.90;;;;;;4975265;28;20465;-71
2021/09/03 09:56:52;;;;;;;3.27;3.00;;;19.60;99.90;;;;;;4975464;28;20458;-72
2021/09/03 09:59:22;;;;;;;3.53;2.20;;;19.80;99.90;;;;;;4975350;28;20455;-71
2021/09/03 10:01:52;;;;;;;4.80;2.20;;;20.00;99.90;;;;;;4975542;28;20433;-72
2021/09/03 10:04:23;;;;;;;2.40;2.20;;;20.00;99.90;;;;;;4975215;28;20514;-72
2021/09/03 10:06:57;;;;;;;5.00;2.87;;;20.10;99.90;;;;;;4975701;28;20431;-71
2021/09/03 10:09:31;;;;;;;3.30;1.97;;;20.10;99.90;;;;;;4975131;28;20426;-72
2021/09/03 10:12:01;;;;;;;4.00;3.00;;;20.30;99.90;;;;;;4975574;28;20390;-72
2021/09/03 10:14:32;;;;;;;3.97;2.17;;;20.40;99.90;;;;;;4974585;28;20404;-72
2021/09/03 10:17:00;;;;;;;3.53;2.07;;;20.50;99.90;;;;;;4957809;28;20443;-72
2021/09/03 10:19:31;;;;;;;2.50;1.70;;;20.50;99.90;;;;;;4974690;28;20764;-73
2021/09/03 10:22:03;;;;;;;3.43;1.77;;;20.60;99.90;;;;;;4975056;28;20480;-72
2021/09/03 10:24:35;;;;;;;3.33;2.03;;;20.60;99.90;;;;;;4975569;28;20900;-72
2021/09/03 10:27:05;;;;;;;3.37;2.80;;;20.60;99.90;;;;;;4975945;28;20867;-72
2021/09/03 10:29:35;;;;;;;3.27;2.87;;;20.70;99.90;;;;;;4974754;28;20386;-73
2021/09/03 10:32:21;;;;;;;2.60;2.07;;;20.70;99.90;;;;;;4973531;28;20438;-72
2021/09/03 10:34:58;;;;;;;5.27;2.97;;;20.90;99.90;;;;;;4974574;28;20460;-73
2021/09/03 10:37:29;;;;;;;3.10;2.03;;;20.70;99.90;;;;;;4967236;28;20515;-73
2021/09/03 10:40:08;;;;;;;2.30;1.73;;;20.80;99.90;;;;;;4954726;29;20462;-71
2021/09/03 10:42:58;;;;;;;3.23;2.20;;;21.00;99.90;;;;;;4954987;29;20426;-72
2021/09/03 10:45:34;;;;;;;5.10;3.30;;;21.20;99.90;;;;;;4974245;28;20455;-73
2021/09/03 10:48:08;;;;;;;4.10;2.53;;;21.30;99.90;;;;;;4974399;28;20390;-72
2021/09/03 10:50:39;;;;;;;2.67;2.00;;;21.20;99.90;;;;;;4974068;28;20418;-74
2021/09/03 10:53:27;;;;;;;3.10;2.67;;;21.20;99.90;;;;;;4974377;28;20426;-74
2021/09/03 10:56:05;;;;;;;3.83;2.30;;;21.40;99.90;;;;;;4973759;28;21035;-74
2021/09/03 10:58:51;;;;;;;2.70;2.03;;;21.50;99.90;;;;;;4974092;28;20396;-70
2021/09/03 11:01:34;;;;;;;3.50;2.33;;;21.50;99.90;;;;;;4973856;28;20462;-72
2021/09/03 11:04:06;;;;;;;3.40;3.03;;;21.60;99.90;;;;;;4974769;28;20487;-73
2021/09/03 11:06:40;;;;;;;1.87;1.30;;;21.50;99.90;;;;;;4973043;28;20567;-72
2021/09/03 11:09:24;;;;;;;5.40;2.47;;;21.40;99.90;;;;;;4967319;28;20412;-72
2021/09/03 11:11:55;;;;;;;2.23;1.80;;;21.40;99.90;;;;;;4973516;28;20412;-71
2021/09/03 11:14:27;;;;;;;6.33;3.10;;;21.50;99.90;;;;;;4974167;28;20417;-71
2021/09/03 11:16:57;;;;;;;3.10;2.67;;;21.60;99.90;;;;;;4973720;28;20419;-71
2021/09/03 11:19:30;;;;;;;1.90;1.80;;;21.50;99.90;;;;;;4973756;28;20423;-72
2021/09/03 11:22:01;;;;;;;1.93;1.53;;;21.70;99.90;;;;;;4973685;28;20441;-72
2021/09/03 11:24:31;;;;;;;2.30;2.10;;;21.80;99.90;;;;;;4973914;28;20417;-71
2021/09/03 11:27:05;;;;;;;3.70;2.60;;;22.00;99.90;;;;;;4974246;28;20444;-72
2021/09/03 11:29:35;;;;;;;5.60;4.00;;;22.20;99.90;;;;;;4956740;28;20434;-70
2021/09/03 11:32:08;;;;;;;2.53;2.07;;;22.30;99.90;;;;;;4975293;28;20386;-71
2021/09/03 11:34:54;;;;;;;2.20;2.00;;;22.40;99.90;;;;;;4973315;28;20423;-72
2021/09/03 11:37:30;;;;;;;3.30;2.37;;;22.50;99.90;;;;;;4973816;28;20530;-70
2021/09/03 11:40:11;;;;;;;2.70;1.93;;;22.50;99.90;;;;;;4974179;28;20418;-71
2021/09/03 11:42:43;;;;;;;2.00;1.70;;;22.50;99.90;;;;;;4973941;28;20476;-71
2021/09/03 11:45:16;;;;;;;3.80;2.47;;;22.50;99.90;;;;;;4973988;28;20446;-70
2021/09/03 11:47:50;;;;;;;2.97;2.27;;;22.60;99.90;;;;;;4974248;28;20887;-70
2021/09/03 11:50:22;;;;;;;2.67;2.37;;;22.50;99.90;;;;;;4975181;28;20427;-70
2021/09/03 11:52:52;;;;;;;3.07;2.30;;;22.60;99.90;;;;;;4976239;28;20461;-72
2021/09/03 11:55:26;;;;;;;4.87;4.40;;;22.70;99.90;;;;;;4974861;28;20470;-71
2021/09/03 11:58:02;;;;;;;1.90;1.70;;;22.80;99.90;;;;;;4974571;28;20614;-71
2021/09/03 12:00:33;;;;;;;2.90;2.17;;;22.70;99.90;;;;;;4975423;28;20419;-71
2021/09/03 12:03:05;;;;;;;3.53;3.23;;;22.80;99.90;;;;;;4975697;28;20466;-70
2021/09/03 12:05:34;;;;;;;3.13;2.20;;;22.80;99.90;;;;;;4975868;28;20413;-71
2021/09/03 12:08:13;;;;;;;2.47;1.50;;;22.70;99.90;;;;;;4974794;28;20427;-71
2021/09/03 12:10:54;;;;;;;3.53;2.23;;;22.90;99.90;;;;;;4974835;28;20956;-71
2021/09/03 12:13:26;;;;;;;2.27;1.33;;;22.80;99.90;;;;;;4975012;28;20404;-71
2021/09/03 12:16:03;;;;;;;1.87;1.37;;;22.80;99.90;;;;;;4976701;28;20418;-71
2021/09/03 12:18:34;;;;;;;3.20;2.33;;;22.90;99.90;;;;;;4976616;28;20435;-71
2021/09/03 12:21:06;;;;;;;2.30;2.10;;;22.90;99.90;;;;;;4978130;28;20451;-71
2021/09/03 12:23:38;;;;;;;3.40;2.20;;;23.00;99.90;;;;;;4981617;28;20494;-72
2021/09/03 12:26:14;;;;;;;5.50;2.97;;;22.90;99.90;;;;;;4982084;28;20430;-72
2021/09/03 12:28:45;;;;;;;4.13;2.90;;;22.80;99.90;;;;;;4979602;28;20430;-73
2021/09/03 12:31:16;;;;;;;2.40;1.40;;;22.80;99.90;;;;;;4974914;28;20462;-71
2021/09/03 12:33:50;;;;;;;4.37;2.43;;;22.90;99.90;;;;;;4973734;28;20434;-71
2021/09/03 12:36:21;;;;;;;2.30;1.93;;;23.00;99.90;;;;;;4972753;28;20457;-71
2021/09/03 12:38:53;;;;;;;5.07;2.33;;;23.20;99.90;;;;;;4972835;28;20426;-71
2021/09/03 12:41:28;;;;;;;1.80;1.37;;;23.20;99.90;;;;;;4973320;28;20517;-72
2021/09/03 12:44:01;;;;;;;3.17;1.80;;;23.20;99.90;;;;;;4973151;28;20437;-71
2021/09/03 12:46:35;;;;;;;3.97;2.20;;;23.30;99.90;;;;;;4972930;28;20451;-70
2021/09/03 12:49:07;;;;;;;3.33;1.83;;;23.40;99.90;;;;;;4973424;28;20427;-71
2021/09/03 12:51:37;;;;;;;1.87;1.17;;;23.30;99.90;;;;;;4972984;28;20435;-70
2021/09/03 12:54:05;;;;;;;1.63;1.13;;;23.40;99.90;;;;;;4973068;28;20473;-72
2021/09/03 12:56:35;;;;;;;1.80;1.43;;;23.50;99.90;;;;;;4958614;28;20856;-71
2021/09/03 12:59:05;;;;;;;2.23;1.90;;;23.30;99.90;;;;;;4959317;28;20477;-71
2021/09/03 13:01:33;;;;;;;2.07;1.73;;;23.20;99.90;;;;;;4976098;28;20404;-70
2021/09/03 13:04:02;;;;;;;1.97;1.50;;;23.10;99.90;;;;;;4976279;28;20426;-71
2021/09/03 13:06:31;;;;;;;1.53;0.70;;;23.10;99.90;;;;;;4958575;28;20466;-71
2021/09/03 13:08:59;;;;;;;1.40;0.90;;;23.00;99.90;;;;;;4975936;28;20864;-71
2021/09/03 13:11:26;;;;;;;1.73;1.10;;;23.00;99.90;;;;;;4976139;28;20422;-72
2021/09/03 13:13:54;;;;;;;2.43;1.53;;;23.10;99.90;;;;;;4976224;28;21011;-71
2021/09/03 13:16:28;;;;;;;2.33;1.37;;;23.20;99.90;;;;;;4975856;28;20517;-70